Time;durP1;ratioP1;P1;durP2;ratioP2;P2;SDS_P1;SDS_P2;PMS_P1;PMS_P2;Temp;Humidity;BMP_temperature;BMP_pressure;BME280_temperature;BME280_humidity;BME280_pressure;Samples;Min_cycle;Max_cycle;Signal;HPM_P1;HPM_P2
2022/05/26 00:03:53;;;;;;;6.13;4.93;;;;;;;;;;10433059;28;20048;-66
2022/05/26 00:08:55;;;;;;;10.32;5.40;;;;;;;;;;10433379;28;20103;-66
2022/05/26 00:14:01;;;;;;;5.80;4.68;;;;;;;;;;10432276;28;20100;-66
2022/05/26 00:19:06;;;;;;;6.97;4.72;;;;;;;;;;10440595;28;20041;-66
2022/05/26 00:24:09;;;;;;;10.20;6.03;;;;;;;;;;10433079;28;20352;-66
2022/05/26 00:29:12;;;;;;;9.32;5.60;;;;;;;;;;10431663;28;20049;-66
2022/05/26 00:34:15;;;;;;;8.90;6.05;;;;;;;;;;10433268;28;20064;-66
2022/05/26 00:39:21;;;;;;;13.27;6.10;;;;;;;;;;10430262;28;20045;-67
2022/05/26 00:44:24;;;;;;;9.27;6.55;;;;;;;;;;10446250;28;20064;-65
2022/05/26 00:49:36;;;;;;;10.35;6.32;;;;;;;;;;10430734;28;20060;-67
2022/05/26 00:54:39;;;;;;;14.30;7.22;;;;;;;;;;10396658;28;20057;-65
2022/05/26 00:59:47;;;;;;;17.02;7.35;;;;;;;;;;10429801;28;20288;-66
2022/05/26 01:04:55;;;;;;;8.77;6.72;;;;;;;;;;10443996;28;20041;-67
2022/05/26 01:09:57;;;;;;;14.30;7.55;;;;;;;;;;10431592;28;20328;-67
2022/05/26 01:15:04;;;;;;;8.52;6.78;;;;;;;;;;10428997;28;20065;-66
2022/05/26 01:20:33;;;;;;;15.23;8.75;;;;;;;;;;10445034;28;20056;-65
2022/05/26 01:26:07;;;;;;;12.05;8.35;;;;;;;;;;10441225;28;20064;-67
2022/05/26 01:31:25;;;;;;;11.65;8.23;;;;;;;;;;10448058;28;20060;-66
2022/05/26 01:36:37;;;;;;;13.32;9.15;;;;;;;;;;10447077;28;20444;-67
2022/05/26 01:42:01;;;;;;;18.10;10.02;;;;;;;;;;10447368;28;20041;-68
2022/05/26 01:47:12;;;;;;;16.15;10.18;;;;;;;;;;10413195;28;20252;-66
2022/05/26 01:52:17;;;;;;;15.27;10.30;;;;;;;;;;10436816;28;20053;-66
2022/05/26 01:57:28;;;;;;;16.33;10.32;;;;;;;;;;10411830;28;20072;-66
2022/05/26 02:02:35;;;;;;;15.48;10.45;;;;;;;;;;10430238;28;20236;-66
2022/05/26 02:07:44;;;;;;;17.40;11.43;;;;;;;;;;10451974;28;20100;-66
2022/05/26 02:12:50;;;;;;;18.02;10.60;;;;;;;;;;10435572;28;20296;-66
2022/05/26 02:17:59;;;;;;;21.73;11.73;;;;;;;;;;10429476;28;20096;-66
2022/05/26 02:23:05;;;;;;;18.65;11.85;;;;;;;;;;10452427;28;20049;-65
2022/05/26 02:28:07;;;;;;;19.25;12.27;;;;;;;;;;10435966;28;20092;-66
2022/05/26 02:33:14;;;;;;;18.33;11.55;;;;;;;;;;10437403;28;20061;-66
2022/05/26 02:38:18;;;;;;;21.58;12.60;;;;;;;;;;10448839;28;20045;-66
2022/05/26 02:43:25;;;;;;;20.42;11.32;;;;;;;;;;10436289;28;20076;-67
2022/05/26 02:48:53;;;;;;;20.40;11.98;;;;;;;;;;10448538;28;20041;-67
2022/05/26 02:54:10;;;;;;;20.42;11.00;;;;;;;;;;10447431;28;20053;-66
2022/05/26 02:59:23;;;;;;;22.55;10.90;;;;;;;;;;10446917;28;20041;-66
2022/05/26 03:04:31;;;;;;;13.45;8.98;;;;;;;;;;10449983;28;20037;-67
2022/05/26 03:09:35;;;;;;;15.07;7.63;;;;;;;;;;10449068;28;20037;-67
2022/05/26 03:14:37;;;;;;;10.55;7.65;;;;;;;;;;10435040;28;20061;-67
2022/05/26 03:19:42;;;;;;;12.52;6.57;;;;;;;;;;10435824;28;20049;-67
2022/05/26 03:24:45;;;;;;;;;;;;;;;;;;10435712;28;20060;-66
2022/05/26 03:29:47;;;;;;;7.95;6.30;;;;;;;;;;10434872;28;19917;-66
2022/05/26 03:45:34;;;;;;;5.82;5.20;;;;;;;;;;10446187;28;20037;-67
2022/05/26 03:50:38;;;;;;;8.68;5.20;;;;;;;;;;10434272;28;20045;-67
2022/05/26 03:55:40;;;;;;;8.48;4.57;;;;;;;;;;10433220;28;20041;-67
2022/05/26 04:00:43;;;;;;;;;;;;;;;;;;10432549;28;20061;-67
2022/05/26 04:05:46;;;;;;;10.55;4.28;;;;;;;;;;10433784;28;19925;-68
2022/05/26 04:10:49;;;;;;;5.10;4.07;;;;;;;;;;10427654;28;20363;-68
2022/05/26 04:15:52;;;;;;;6.90;3.63;;;;;;;;;;10433734;28;20302;-67
2022/05/26 04:21:06;;;;;;;9.23;4.03;;;;;;;;;;10434004;28;20053;-68
2022/05/26 04:26:10;;;;;;;7.22;3.47;;;;;;;;;;10447486;28;20068;-67
2022/05/26 04:31:12;;;;;;;8.07;3.95;;;;;;;;;;10433902;28;20270;-68
2022/05/26 04:36:15;;;;;;;4.40;3.50;;;;;;;;;;10433045;28;20111;-68
2022/05/26 04:41:18;;;;;;;7.88;3.25;;;;;;;;;;10432254;28;20054;-67
2022/05/26 04:46:20;;;;;;;3.65;2.75;;;;;;;;;;10431919;28;20053;-67
2022/05/26 04:51:24;;;;;;;5.13;3.03;;;;;;;;;;10432456;28;20076;-67
2022/05/26 04:56:26;;;;;;;2.95;2.58;;;;;;;;;;10432200;28;20100;-68
2022/05/26 05:01:28;;;;;;;3.92;2.83;;;;;;;;;;10430617;28;20372;-68
2022/05/26 05:06:32;;;;;;;5.90;3.10;;;;;;;;;;10431451;28;20041;-67
2022/05/26 05:11:35;;;;;;;5.22;2.92;;;;;;;;;;10426491;28;20057;-67
2022/05/26 05:16:42;;;;;;;5.47;3.38;;;;;;;;;;10428933;28;20053;-68
2022/05/26 05:21:50;;;;;;;4.18;3.03;;;;;;;;;;10444641;28;20060;-68
2022/05/26 05:26:57;;;;;;;3.80;2.80;;;;;;;;;;10416722;28;20084;-68
2022/05/26 05:32:05;;;;;;;3.97;3.28;;;;;;;;;;10431678;28;20111;-68
2022/05/26 05:37:09;;;;;;;4.60;3.10;;;;;;;;;;10431457;28;20080;-68
2022/05/26 05:42:12;;;;;;;4.55;3.03;;;;;;;;;;10429978;28;20049;-68
2022/05/26 05:47:14;;;;;;;5.30;3.85;;;;;;;;;;10431067;28;20041;-67
2022/05/26 05:52:20;;;;;;;7.25;3.10;;;;;;;;;;10429693;28;20201;-68
2022/05/26 05:57:23;;;;;;;4.63;3.03;;;;;;;;;;10428439;28;20236;-67
2022/05/26 06:02:25;;;;;;;3.10;2.70;;;;;;;;;;10430187;28;20037;-68
2022/05/26 06:07:29;;;;;;;4.80;2.90;;;;;;;;;;10429772;28;21942;-68
2022/05/26 06:12:32;;;;;;;6.75;2.97;;;;;;;;;;10431699;28;20041;-67
2022/05/26 06:17:34;;;;;;;4.50;2.65;;;;;;;;;;10437747;28;20065;-68
2022/05/26 06:22:41;;;;;;;3.10;2.50;;;;;;;;;;10436967;28;20049;-68
2022/05/26 06:38:27;;;;;;;5.80;2.72;;;;;;;;;;10431708;28;20041;-67
2022/05/26 06:43:29;;;;;;;3.00;2.40;;;;;;;;;;10438250;28;20060;-68
2022/05/26 06:48:31;;;;;;;4.88;2.65;;;;;;;;;;10436941;28;20233;-69
2022/05/26 06:53:35;;;;;;;9.02;3.72;;;;;;;;;;10437279;28;20237;-69
2022/05/26 06:58:37;;;;;;;5.20;2.78;;;;;;;;;;10435782;28;20050;-68
2022/05/26 07:03:40;;;;;;;5.28;2.42;;;;;;;;;;10435800;28;20045;-69
2022/05/26 07:08:44;;;;;;;4.60;1.98;;;;;;;;;;10434060;28;20088;-68
2022/05/26 07:13:47;;;;;;;2.75;1.60;;;;;;;;;;10435310;28;20069;-69
2022/05/26 07:18:53;;;;;;;3.42;1.95;;;;;;;;;;10434865;28;20042;-69
2022/05/26 07:23:58;;;;;;;4.40;1.87;;;;;;;;;;10433930;28;20352;-70
2022/05/26 07:29:00;;;;;;;3.17;1.88;;;;;;;;;;10434155;28;20092;-69
2022/05/26 07:34:03;;;;;;;4.20;1.95;;;;;;;;;;10435359;28;20083;-69
2022/05/26 07:44:29;;;;;;;3.22;2.00;;;;;;;;;;10434265;28;20233;-68
2022/05/26 07:49:33;;;;;;;7.72;2.13;;;;;;;;;;10433395;28;20049;-68
2022/05/26 07:54:37;;;;;;;2.78;1.50;;;;;;;;;;10433106;28;20358;-69
2022/05/26 07:59:39;;;;;;;6.75;1.52;;;;;;;;;;10435136;28;20045;-70
2022/05/26 08:04:42;;;;;;;4.07;1.63;;;;;;;;;;10434069;28;20049;-68
2022/05/26 08:09:46;;;;;;;3.83;1.70;;;;;;;;;;10433222;28;20055;-69
2022/05/26 08:14:49;;;;;;;3.63;1.77;;;;;;;;;;10433382;28;20061;-68
2022/05/26 08:19:52;;;;;;;4.63;1.83;;;;;;;;;;10433884;28;20280;-67
2022/05/26 08:24:58;;;;;;;3.53;1.88;;;;;;;;;;10432524;28;20053;-69
2022/05/26 08:30:00;;;;;;;4.82;2.22;;;;;;;;;;10447111;28;20041;-68
2022/05/26 08:35:08;;;;;;;4.80;2.15;;;;;;;;;;10432579;28;20264;-68
2022/05/26 08:40:23;;;;;;;2.95;2.40;;;;;;;;;;10431378;28;20045;-69
2022/05/26 08:45:26;;;;;;;8.40;2.65;;;;;;;;;;10428553;28;20042;-72
2022/05/26 08:50:32;;;;;;;3.10;2.35;;;;;;;;;;10424238;28;20052;-70
2022/05/26 08:55:41;;;;;;;5.68;2.17;;;;;;;;;;10427288;28;20033;-69
2022/05/26 09:00:46;;;;;;;32.97;5.63;;;;;;;;;;10446010;28;20049;-68
2022/05/26 09:05:53;;;;;;;3.40;1.80;;;;;;;;;;10444706;28;20378;-70
2022/05/26 09:16:23;;;;;;;3.88;2.00;;;;;;;;;;10430921;28;20104;-69
2022/05/26 09:21:31;;;;;;;11.00;2.53;;;;;;;;;;10431444;28;20064;-68
2022/05/26 09:26:35;;;;;;;5.47;1.95;;;;;;;;;;10430654;28;20061;-69
2022/05/26 09:31:45;;;;;;;7.60;2.00;;;;;;;;;;10431479;28;20087;-69
2022/05/26 09:36:50;;;;;;;2.05;1.40;;;;;;;;;;10431026;28;20049;-69
2022/05/26 09:41:56;;;;;;;2.55;1.50;;;;;;;;;;10431206;28;20071;-68
2022/05/26 09:47:03;;;;;;;6.75;1.83;;;;;;;;;;10432067;28;20041;-67
2022/05/26 09:52:15;;;;;;;4.05;1.98;;;;;;;;;;10451661;28;20060;-69
2022/05/26 09:57:22;;;;;;;3.60;2.13;;;;;;;;;;10453386;28;20053;-69
2022/05/26 10:02:33;;;;;;;10.88;3.13;;;;;;;;;;10439123;28;20061;-68
2022/05/26 10:07:55;;;;;;;6.33;2.03;;;;;;;;;;10434936;28;20351;-68
2022/05/26 10:13:18;;;;;;;2.63;1.75;;;;;;;;;;10452362;28;20223;-68
2022/05/26 10:18:40;;;;;;;5.38;2.53;;;;;;;;;;10438128;28;20096;-67
2022/05/26 10:23:56;;;;;;;5.13;2.17;;;;;;;;;;10452061;28;20049;-69
2022/05/26 10:29:28;;;;;;;5.97;2.65;;;;;;;;;;10453210;28;20041;-68
2022/05/26 10:34:47;;;;;;;4.27;2.67;;;;;;;;;;10451275;28;20041;-69
2022/05/26 10:40:05;;;;;;;4.18;2.05;;;;;;;;;;10449250;28;20329;-68
2022/05/26 10:45:13;;;;;;;8.25;2.85;;;;;;;;;;10451021;28;20402;-67
2022/05/26 10:50:25;;;;;;;7.93;2.60;;;;;;;;;;10447839;28;20268;-69
2022/05/26 10:55:37;;;;;;;2.65;1.75;;;;;;;;;;10412541;28;20050;-68
2022/05/26 11:00:40;;;;;;;3.22;1.90;;;;;;;;;;10432929;28;20049;-68
2022/05/26 11:05:46;;;;;;;3.58;1.45;;;;;;;;;;10436002;28;20063;-68
2022/05/26 11:10:53;;;;;;;4.15;1.73;;;;;;;;;;10450392;28;20041;-68
2022/05/26 11:21:26;;;;;;;6.25;2.38;;;;;;;;;;10447199;28;20041;-69
2022/05/26 11:26:36;;;;;;;7.60;2.67;;;;;;;;;;10433864;28;20061;-70
2022/05/26 11:37:28;;;;;;;6.28;2.15;;;;;;;;;;10309843;28;20054;-68
2022/05/26 11:42:33;;;;;;;4.95;2.35;;;;;;;;;;10260650;28;20082;-69
2022/05/26 11:47:49;;;;;;;8.85;2.83;;;;;;;;;;10309803;28;20062;-69
2022/05/26 11:53:07;;;;;;;5.47;2.85;;;;;;;;;;10317510;28;20065;-67
2022/05/26 11:58:35;;;;;;;5.20;3.10;;;;;;;;;;10288759;28;20046;-68
2022/05/26 12:03:52;;;;;;;12.52;3.38;;;;;;;;;;10309117;28;20039;-68
2022/05/26 12:09:01;;;;;;;2.90;2.35;;;;;;;;;;10420066;28;20068;-68
2022/05/26 12:14:05;;;;;;;4.85;2.20;;;;;;;;;;10429803;28;20057;-67
2022/05/26 12:19:10;;;;;;;3.92;2.28;;;;;;;;;;10434393;28;20049;-69
2022/05/26 12:24:59;;;;;;;3.20;2.20;;;;;;;;;;10433201;28;20224;-68
2022/05/26 12:30:05;;;;;;;4.82;1.45;;;;;;;;;;10445347;28;20087;-69
2022/05/26 12:35:23;;;;;;;4.38;1.55;;;;;;;;;;10435352;28;20053;-69
2022/05/26 12:40:47;;;;;;;2.25;1.35;;;;;;;;;;10447456;28;20041;-68
2022/05/26 12:45:51;;;;;;;3.03;1.25;;;;;;;;;;10433465;28;20049;-68
2022/05/26 12:51:02;;;;;;;3.78;2.08;;;;;;;;;;10433250;28;20041;-68
2022/05/26 12:56:11;;;;;;;3.60;1.80;;;;;;;;;;10433217;28;20050;-69
2022/05/26 13:01:16;;;;;;;2.60;1.40;;;;;;;;;;10447654;28;20048;-68
2022/05/26 13:06:29;;;;;;;3.28;1.50;;;;;;;;;;10433349;28;20091;-69
2022/05/26 13:11:34;;;;;;;4.50;1.40;;;;;;;;;;10449982;28;20056;-69
2022/05/26 13:16:39;;;;;;;2.85;1.58;;;;;;;;;;10436739;28;20233;-67
2022/05/26 13:21:46;;;;;;;3.72;1.27;;;;;;;;;;10432857;28;20037;-69
2022/05/26 13:26:50;;;;;;;1.63;1.02;;;;;;;;;;10444047;28;20033;-68
2022/05/26 13:37:22;;;;;;;3.28;2.13;;;;;;;;;;10422480;28;20037;-68
2022/05/26 13:42:24;;;;;;;5.00;1.60;;;;;;;;;;10444372;28;20057;-70
2022/05/26 13:47:26;;;;;;;2.30;1.35;;;;;;;;;;10429497;28;20042;-70
2022/05/26 13:52:31;;;;;;;7.45;1.95;;;;;;;;;;10421556;28;20053;-68
2022/05/26 13:57:40;;;;;;;5.32;1.65;;;;;;;;;;10445023;28;20088;-68
2022/05/26 14:02:51;;;;;;;3.85;1.98;;;;;;;;;;10445787;28;20045;-67
2022/05/26 14:08:07;;;;;;;3.63;1.98;;;;;;;;;;10431514;28;20057;-68
2022/05/26 14:13:22;;;;;;;2.08;1.58;;;;;;;;;;10443715;28;20045;-68
2022/05/26 14:18:37;;;;;;;5.05;1.60;;;;;;;;;;10318202;28;20051;-67
2022/05/26 14:23:49;;;;;;;3.08;1.60;;;;;;;;;;10326610;28;20058;-68
2022/05/26 14:28:52;;;;;;;2.70;1.58;;;;;;;;;;10328805;28;20249;-66
2022/05/26 14:34:00;;;;;;;2.13;1.50;;;;;;;;;;10350348;28;20042;-69
2022/05/26 14:39:04;;;;;;;3.92;1.60;;;;;;;;;;10368456;28;20046;-68
2022/05/26 14:44:08;;;;;;;2.67;1.85;;;;;;;;;;10348626;28;20043;-67
2022/05/26 14:49:10;;;;;;;3.45;1.98;;;;;;;;;;10330678;28;20046;-67
2022/05/26 14:59:37;;;;;;;3.78;1.80;;;;;;;;;;10363330;28;20050;-68
2022/05/26 15:04:39;;;;;;;3.20;1.75;;;;;;;;;;10354235;28;20146;-67
2022/05/26 15:09:43;;;;;;;4.00;1.80;;;;;;;;;;10342238;28;20042;-68
2022/05/26 15:14:46;;;;;;;1.95;1.30;;;;;;;;;;10377607;28;20053;-68
2022/05/26 15:19:52;;;;;;;2.40;1.30;;;;;;;;;;10437484;28;20060;-68
2022/05/26 15:24:56;;;;;;;2.25;1.30;;;;;;;;;;10436843;28;20050;-68
2022/05/26 15:29:59;;;;;;;6.35;1.83;;;;;;;;;;10436045;28;20064;-67
2022/05/26 15:35:01;;;;;;;22.80;8.67;;;;;;;;;;10431733;28;20064;-67
2022/05/26 15:40:07;;;;;;;3.27;1.83;;;;;;;;;;10435014;28;20041;-68
2022/05/26 15:45:11;;;;;;;3.30;1.85;;;;;;;;;;10447968;28;20048;-67
2022/05/26 15:50:19;;;;;;;2.28;1.58;;;;;;;;;;10434328;28;20049;-67
2022/05/26 15:55:24;;;;;;;4.65;2.00;;;;;;;;;;10447845;28;20056;-68
2022/05/26 16:00:27;;;;;;;3.83;1.92;;;;;;;;;;10435662;28;20047;-67
2022/05/26 16:05:29;;;;;;;3.57;1.90;;;;;;;;;;10435270;28;20362;-68
2022/05/26 16:10:33;;;;;;;5.13;2.00;;;;;;;;;;10435574;28;20306;-68
2022/05/26 16:15:35;;;;;;;;;;;;;;;;;;10434581;28;20064;-68
2022/05/26 16:20:39;;;;;;;7.57;3.67;;;;;;;;;;10433591;28;19948;-69
2022/05/26 16:25:44;;;;;;;;;;;;;;;;;;10433949;28;20060;-68
2022/05/26 16:30:47;;;;;;;14.57;7.63;;;;;;;;;;10434676;28;20259;-66
2022/05/26 16:41:13;;;;;;;13.20;4.47;;;;;;;;;;10443426;28;20069;-67
2022/05/26 16:46:16;;;;;;;5.35;2.08;;;;;;;;;;10426206;28;20042;-70
2022/05/26 16:51:18;;;;;;;5.03;2.08;;;;;;;;;;10428020;28;20064;-68
2022/05/26 16:56:22;;;;;;;7.00;2.08;;;;;;;;;;10433062;28;20049;-69
2022/05/26 17:01:24;;;;;;;4.60;1.73;;;;;;;;;;10435600;28;20041;-69
2022/05/26 17:06:27;;;;;;;15.45;5.45;;;;;;;;;;10421070;28;20048;-67
2022/05/26 17:11:31;;;;;;;3.45;2.05;;;;;;;;;;10428832;28;20387;-68
2022/05/26 17:21:57;;;;;;;11.90;3.17;;;;;;;;;;10402470;28;19917;-69
2022/05/26 17:27:03;;;;;;;3.17;1.90;;;;;;;;;;10422266;28;20067;-68
2022/05/26 17:32:06;;;;;;;4.47;2.20;;;;;;;;;;10428585;28;20052;-68
2022/05/26 17:37:09;;;;;;;9.45;5.88;;;;;;;;;;10431403;28;20045;-67
2022/05/26 17:42:13;;;;;;;7.20;2.67;;;;;;;;;;10431972;28;20049;-67
2022/05/26 17:47:15;;;;;;;9.90;4.88;;;;;;;;;;10432629;28;20057;-68
2022/05/26 17:52:19;;;;;;;3.42;2.25;;;;;;;;;;10432169;28;20041;-68
2022/05/26 17:57:23;;;;;;;3.92;2.50;;;;;;;;;;10433636;28;20233;-68
2022/05/26 18:02:27;;;;;;;7.38;4.35;;;;;;;;;;10432178;28;20115;-69
2022/05/26 18:07:30;;;;;;;7.70;2.40;;;;;;;;;;10432269;28;20261;-68
2022/05/26 18:12:34;;;;;;;9.52;2.88;;;;;;;;;;10437953;28;20098;-72
2022/05/26 18:17:38;;;;;;;4.55;2.92;;;;;;;;;;10441419;28;20071;-67
2022/05/26 18:22:43;;;;;;;5.22;2.55;;;;;;;;;;10438561;28;20053;-69
2022/05/26 18:27:46;;;;;;;3.10;2.35;;;;;;;;;;10439843;28;20356;-69
2022/05/26 18:32:49;;;;;;;5.43;2.80;;;;;;;;;;10439108;28;20053;-68
2022/05/26 18:37:52;;;;;;;4.78;2.40;;;;;;;;;;10438211;28;20302;-69
2022/05/26 18:42:56;;;;;;;4.43;2.83;;;;;;;;;;10439356;28;20050;-70
2022/05/26 18:48:06;;;;;;;5.47;2.73;;;;;;;;;;10438667;28;20041;-67
2022/05/26 18:53:09;;;;;;;7.95;2.92;;;;;;;;;;10451099;28;20290;-67
2022/05/26 18:58:13;;;;;;;14.23;3.13;;;;;;;;;;10436844;28;20037;-69
2022/05/26 19:03:17;;;;;;;9.13;2.75;;;;;;;;;;10436313;28;20067;-69
2022/05/26 19:08:20;;;;;;;6.40;3.10;;;;;;;;;;10437347;28;20049;-68
2022/05/26 19:13:29;;;;;;;5.65;3.42;;;;;;;;;;10435301;28;20041;-67
2022/05/26 19:18:32;;;;;;;6.47;3.80;;;;;;;;;;10353053;28;20042;-69
2022/05/26 19:23:36;;;;;;;10.00;4.50;;;;;;;;;;10351516;28;20050;-69
2022/05/26 19:28:45;;;;;;;7.90;3.83;;;;;;;;;;10354624;28;20388;-69
2022/05/26 19:33:47;;;;;;;4.78;2.95;;;;;;;;;;10367314;28;20206;-68
2022/05/26 19:38:49;;;;;;;6.57;2.95;;;;;;;;;;10355195;28;20049;-68
2022/05/26 19:43:54;;;;;;;8.15;3.45;;;;;;;;;;10353351;28;20053;-68
2022/05/26 19:48:57;;;;;;;9.32;3.33;;;;;;;;;;10353902;28;20049;-68
2022/05/26 19:53:59;;;;;;;16.90;5.97;;;;;;;;;;10353982;28;20096;-69
2022/05/26 19:59:06;;;;;;;10.07;4.13;;;;;;;;;;10352265;28;20088;-69
2022/05/26 20:04:10;;;;;;;6.13;3.50;;;;;;;;;;10351375;28;20289;-69
2022/05/26 20:09:13;;;;;;;6.80;3.60;;;;;;;;;;10350675;28;20219;-69
2022/05/26 20:14:18;;;;;;;13.52;5.70;;;;;;;;;;10365181;28;20057;-69
2022/05/26 20:19:20;;;;;;;11.80;6.18;;;;;;;;;;10442684;28;20559;-69
2022/05/26 20:24:23;;;;;;;12.93;4.43;;;;;;;;;;10434783;28;20378;-69
2022/05/26 20:29:33;;;;;;;27.25;7.18;;;;;;;;;;10433825;28;20328;-70
2022/05/26 20:34:35;;;;;;;10.35;4.72;;;;;;;;;;10446514;28;20350;-67
2022/05/26 20:39:41;;;;;;;13.60;6.00;;;;;;;;;;10433237;28;20045;-69
2022/05/26 20:44:46;;;;;;;15.95;4.82;;;;;;;;;;10446963;28;20237;-68
2022/05/26 20:49:51;;;;;;;13.18;4.90;;;;;;;;;;10430441;28;20049;-68
2022/05/26 20:54:54;;;;;;;12.95;4.13;;;;;;;;;;10425732;28;20045;-68
2022/05/26 20:59:57;;;;;;;6.75;3.20;;;;;;;;;;10414112;28;20317;-68
2022/05/26 21:05:00;;;;;;;8.50;2.92;;;;;;;;;;10412796;28;20061;-69
2022/05/26 21:10:04;;;;;;;11.77;2.55;;;;;;;;;;10413209;28;20037;-67
2022/05/26 21:15:09;;;;;;;7.35;2.90;;;;;;;;;;10412990;28;20313;-69
2022/05/26 21:20:12;;;;;;;8.45;2.80;;;;;;;;;;10432106;28;20110;-68
2022/05/26 21:25:15;;;;;;;4.80;2.78;;;;;;;;;;10430506;28;20049;-69
2022/05/26 21:30:20;;;;;;;6.00;3.15;;;;;;;;;;10430650;28;20042;-68
2022/05/26 21:35:22;;;;;;;9.70;2.88;;;;;;;;;;10391818;28;20034;-66
2022/05/26 21:40:24;;;;;;;6.32;2.88;;;;;;;;;;10402584;28;20053;-67
2022/05/26 21:45:28;;;;;;;11.98;3.13;;;;;;;;;;10436449;28;20268;-67
2022/05/26 21:50:31;;;;;;;8.90;2.75;;;;;;;;;;10441085;28;20345;-68
2022/05/26 21:55:34;;;;;;;5.72;2.40;;;;;;;;;;10440121;28;20045;-68
2022/05/26 22:00:54;;;;;;;4.40;2.17;;;;;;;;;;10440563;28;20037;-67
2022/05/26 22:11:16;;;;;;;9.25;2.40;;;;;;;;;;10454261;28;20041;-66
2022/05/26 22:16:20;;;;;;;3.83;2.03;;;;;;;;;;10413196;28;20061;-67
2022/05/26 22:21:23;;;;;;;5.20;2.40;;;;;;;;;;10409620;28;20240;-66
2022/05/26 22:26:25;;;;;;;4.28;2.45;;;;;;;;;;10438558;28;20321;-67
2022/05/26 22:31:30;;;;;;;5.97;2.75;;;;;;;;;;10437920;28;20068;-67
2022/05/26 22:36:32;;;;;;;3.67;2.22;;;;;;;;;;10438130;28;20245;-68
2022/05/26 22:41:35;;;;;;;5.63;2.58;;;;;;;;;;10437640;28;20049;-68
2022/05/26 22:46:39;;;;;;;7.30;2.95;;;;;;;;;;10439317;28;20084;-67
2022/05/26 22:51:42;;;;;;;4.60;2.80;;;;;;;;;;10436934;28;20052;-66
2022/05/26 22:56:44;;;;;;;4.40;2.55;;;;;;;;;;10435538;28;20053;-67
2022/05/26 23:01:47;;;;;;;6.57;2.65;;;;;;;;;;10436859;28;20359;-68
2022/05/26 23:06:50;;;;;;;16.27;2.83;;;;;;;;;;10435518;28;20408;-68
2022/05/26 23:11:52;;;;;;;4.90;2.78;;;;;;;;;;10436617;28;20217;-68
2022/05/26 23:16:57;;;;;;;4.40;2.63;;;;;;;;;;10433827;28;20072;-68
2022/05/26 23:21:59;;;;;;;7.28;3.10;;;;;;;;;;10431329;28;20337;-68
2022/05/26 23:27:02;;;;;;;7.47;3.33;;;;;;;;;;10435074;28;20045;-68
2022/05/26 23:32:06;;;;;;;7.43;3.22;;;;;;;;;;10434203;28;20041;-68
2022/05/26 23:37:08;;;;;;;13.90;3.85;;;;;;;;;;10435725;28;20340;-68
2022/05/26 23:47:34;;;;;;;8.30;2.83;;;;;;;;;;10447659;28;20041;-68
2022/05/26 23:52:37;;;;;;;9.07;3.93;;;;;;;;;;10433839;28;20041;-68
2022/05/26 23:57:51;;;;;;;15.18;4.25;;;;;;;;;;10434071;28;20053;-68
